createdAt,value
2024-03-21T04:15:28.869Z,54.20
2024-03-21T04:16:28.710Z,53.72
2024-03-21T04:17:28.699Z,53.91
2024-03-21T04:18:28.711Z,54.30
2024-03-21T04:19:28.752Z,54.30
2024-03-21T04:20:28.718Z,54.39
2024-03-21T04:21:28.692Z,53.81
2024-03-21T04:22:28.731Z,54.30
2024-03-21T04:23:28.731Z,53.91
2024-03-21T04:24:28.636Z,54.20
2024-03-21T04:25:28.749Z,54.58
2024-03-21T04:26:28.796Z,54.78
2024-03-21T04:27:28.771Z,54.78
2024-03-21T04:28:28.686Z,54.49
2024-03-21T04:29:28.608Z,54.30
2024-03-21T04:30:28.622Z,54.39
2024-03-21T04:31:28.604Z,54.87
2024-03-21T04:32:28.577Z,54.39
2024-03-21T04:33:28.596Z,54.87
2024-03-21T04:34:28.580Z,54.42
2024-03-21T04:35:28.570Z,54.90
2024-03-21T04:36:28.592Z,54.61
2024-03-21T04:37:28.570Z,55.00
2024-03-21T04:38:40.734Z,55.00
2024-03-21T04:39:28.565Z,55.00
2024-03-21T04:40:28.571Z,54.61
2024-03-21T04:41:28.556Z,55.19
2024-03-21T04:42:28.564Z,54.61
2024-03-21T04:43:28.540Z,54.61
2024-03-21T04:44:28.553Z,54.52
2024-03-21T04:45:28.530Z,54.61
2024-03-21T04:46:28.531Z,54.42
2024-03-21T04:47:28.554Z,54.52
2024-03-21T04:48:28.536Z,54.52
2024-03-21T04:49:28.498Z,55.00
2024-03-21T04:50:28.506Z,55.09
2024-03-21T04:51:28.516Z,54.90
2024-03-21T04:52:28.523Z,54.61
2024-03-21T04:53:28.506Z,54.42
2024-03-21T04:54:28.491Z,55.00
2024-03-21T04:55:28.504Z,54.90
2024-03-21T04:56:28.511Z,54.61
2024-03-21T04:57:28.497Z,54.52
2024-03-21T04:58:28.472Z,55.09
2024-03-21T04:59:28.460Z,54.52
2024-03-21T05:00:28.463Z,54.61
2024-03-21T05:01:28.477Z,55.19
2024-03-21T05:02:28.464Z,55.22
2024-03-21T05:03:28.468Z,54.61
2024-03-21T05:04:28.446Z,55.12
2024-03-21T05:05:28.483Z,55.09
2024-03-21T05:06:28.491Z,55.22
2024-03-21T05:07:28.457Z,54.61
2024-03-21T05:08:28.430Z,54.64
2024-03-21T05:09:28.439Z,54.71
2024-03-21T05:10:28.451Z,55.12
2024-03-21T05:11:28.443Z,55.09
2024-03-21T05:12:28.448Z,54.54
2024-03-21T05:13:28.449Z,54.64
2024-03-21T05:14:28.406Z,55.12
2024-03-21T05:15:28.411Z,55.12
2024-03-21T05:16:28.429Z,55.12
2024-03-21T05:17:28.455Z,55.22
2024-03-21T05:18:28.389Z,54.83
2024-03-21T05:19:28.403Z,55.12
2024-03-21T05:20:28.392Z,54.74
2024-03-21T05:21:28.411Z,55.12
2024-03-21T05:22:28.391Z,55.02
2024-03-21T05:23:28.425Z,55.02
2024-03-21T05:24:28.382Z,54.54
2024-03-21T05:25:28.388Z,54.74
2024-03-21T05:26:28.386Z,55.12
2024-03-21T05:27:28.359Z,54.74
2024-03-21T05:28:28.343Z,55.12
2024-03-21T05:29:28.349Z,54.74
2024-03-21T05:30:28.361Z,54.64
2024-03-21T05:31:28.339Z,55.02
2024-03-21T05:32:28.355Z,54.74
2024-03-21T05:33:28.328Z,55.12
2024-03-21T05:34:28.359Z,55.12
2024-03-21T05:35:28.330Z,54.74
2024-03-21T05:36:28.313Z,54.35
2024-03-21T05:37:28.311Z,54.54
2024-03-21T05:38:28.315Z,54.44
2024-03-21T05:39:28.327Z,54.44
2024-03-21T05:40:28.316Z,54.44
2024-03-21T05:41:28.301Z,54.93
2024-03-21T05:42:28.299Z,54.93
2024-03-21T05:43:28.291Z,55.02
2024-03-21T05:44:28.345Z,54.93
2024-03-21T05:45:28.297Z,55.02
2024-03-21T05:46:28.302Z,54.93
2024-03-21T05:47:28.321Z,54.25
2024-03-21T05:48:28.285Z,54.93
2024-03-21T05:49:28.277Z,54.93
2024-03-21T05:50:28.273Z,55.02
2024-03-21T05:51:28.266Z,54.83
2024-03-21T05:52:28.254Z,55.02
2024-03-21T05:53:28.258Z,54.74
2024-03-21T05:54:28.285Z,54.54
2024-03-21T05:55:28.247Z,55.02
2024-03-21T05:56:28.231Z,54.44
2024-03-21T05:57:28.242Z,54.74
2024-03-21T05:58:28.245Z,54.44
2024-03-21T05:59:28.257Z,54.74
2024-03-21T06:00:28.220Z,54.74
2024-03-21T06:01:28.216Z,54.44
2024-03-21T06:02:28.204Z,54.74
2024-03-21T06:03:28.214Z,54.74
2024-03-21T06:04:28.227Z,54.44
2024-03-21T06:05:28.222Z,54.35
2024-03-21T06:06:28.195Z,54.44
2024-03-21T06:07:30.484Z,54.74
2024-03-21T06:08:28.198Z,54.35
2024-03-21T06:09:28.216Z,54.44
2024-03-21T06:10:28.197Z,54.44
2024-03-21T06:11:28.183Z,54.74
2024-03-21T06:12:28.177Z,54.74
2024-03-21T06:13:28.188Z,54.74
2024-03-21T06:14:28.191Z,54.64
2024-03-21T06:15:28.183Z,54.83
2024-03-21T06:16:28.167Z,54.54
2024-03-21T06:17:28.176Z,54.74
2024-03-21T06:18:28.169Z,54.74
2024-03-21T06:19:28.164Z,54.86
2024-03-21T06:20:28.136Z,54.74
2024-03-21T06:21:28.147Z,54.44
2024-03-21T06:22:28.166Z,54.25
2024-03-21T06:23:28.177Z,54.66
2024-03-21T06:24:28.134Z,54.64
2024-03-21T06:25:28.142Z,54.74
2024-03-21T06:26:28.129Z,54.28
2024-03-21T06:27:28.114Z,54.76
2024-03-21T06:28:28.146Z,54.76
2024-03-21T06:29:28.132Z,54.28
2024-03-21T06:30:28.105Z,54.86
2024-03-21T06:31:28.106Z,54.28
2024-03-21T06:32:28.103Z,54.86
2024-03-21T06:33:28.124Z,54.18
2024-03-21T06:34:28.119Z,54.66
2024-03-21T06:35:28.093Z,54.38
2024-03-21T06:36:28.164Z,54.18
2024-03-21T06:37:28.093Z,54.66
2024-03-21T06:38:28.083Z,54.57
2024-03-21T06:39:28.101Z,54.57
2024-03-21T06:40:28.060Z,54.66
2024-03-21T06:41:28.071Z,54.66
2024-03-21T06:42:28.056Z,54.18
2024-03-21T06:43:28.095Z,54.18
2024-03-21T06:44:28.083Z,54.47
2024-03-21T06:45:28.071Z,54.66
2024-03-21T06:46:28.059Z,54.09
2024-03-21T06:47:28.111Z,54.47
2024-03-21T06:48:28.031Z,54.47
2024-03-21T06:49:28.039Z,53.99
2024-03-21T06:50:28.020Z,54.09
2024-03-21T06:51:28.032Z,54.47
2024-03-21T06:52:28.027Z,54.38
2024-03-21T06:53:28.037Z,53.89
2024-03-21T06:54:28.009Z,54.38
2024-03-21T06:55:28.031Z,54.28
2024-03-21T06:56:28.012Z,54.47
2024-03-21T06:57:27.995Z,54.47
2024-03-21T06:58:28.004Z,54.47
2024-03-21T06:59:27.987Z,53.70
2024-03-21T07:01:27.993Z,54.28
2024-03-21T07:02:27.987Z,53.99
2024-03-21T07:03:28.102Z,54.18
2024-03-21T07:06:00.550Z,54.09
2024-03-21T07:07:00.552Z,54.28
2024-03-21T07:08:00.586Z,54.38
2024-03-21T07:09:00.541Z,54.28
2024-03-21T07:10:00.540Z,53.99
2024-03-21T07:11:00.631Z,54.18
2024-03-21T07:12:00.550Z,53.89
2024-03-21T07:13:00.548Z,53.89
2024-03-21T07:14:00.579Z,54.28
2024-03-21T07:15:00.496Z,53.80
2024-03-21T07:16:00.534Z,53.80
2024-03-21T07:17:00.511Z,53.89
2024-03-21T07:18:00.522Z,54.28
2024-03-21T07:19:00.485Z,54.28
2024-03-21T07:20:03.166Z,53.89
2024-03-21T07:21:00.540Z,53.99
2024-03-21T07:22:00.466Z,53.80
2024-03-21T07:23:00.496Z,53.70
2024-03-21T07:24:00.501Z,53.99
2024-03-21T07:25:00.515Z,53.99
2024-03-21T07:26:01.702Z,53.99
2024-03-21T07:27:00.456Z,53.61
2024-03-21T07:28:00.558Z,53.51
2024-03-21T07:29:00.519Z,53.31
2024-03-21T07:30:00.452Z,54.09
2024-03-21T07:31:00.452Z,54.28
2024-03-21T07:32:00.450Z,54.09
2024-03-21T07:33:00.458Z,54.18
2024-03-21T07:34:00.529Z,53.22
2024-03-21T07:35:00.450Z,54.09
2024-03-21T07:36:00.445Z,54.09
2024-03-21T07:37:00.438Z,54.09
2024-03-21T07:38:00.424Z,53.89
2024-03-21T07:39:00.433Z,53.99
2024-03-21T07:40:00.414Z,53.89
2024-03-21T07:41:00.428Z,53.89
2024-03-21T07:42:00.408Z,53.61
2024-03-21T07:43:00.434Z,53.99
2024-03-21T07:44:00.414Z,53.80
2024-03-21T07:45:00.403Z,53.51
2024-03-21T07:46:00.428Z,53.51
2024-03-21T07:47:00.383Z,53.51
2024-03-21T07:48:00.381Z,53.80
2024-03-21T07:49:00.395Z,53.41
2024-03-21T07:50:00.477Z,53.41
2024-03-21T07:51:00.379Z,53.22
2024-03-21T07:52:00.374Z,53.31
2024-03-21T07:53:00.396Z,53.22
2024-03-21T07:54:00.350Z,53.22
2024-03-21T07:55:00.375Z,53.51
2024-03-21T07:56:00.356Z,53.22
2024-03-21T07:57:00.354Z,53.13
2024-03-21T07:58:00.339Z,53.61
2024-03-21T07:59:00.341Z,53.31
2024-03-21T08:00:00.357Z,53.31
2024-03-21T08:01:00.337Z,53.13
2024-03-21T08:02:00.380Z,52.93
2024-03-21T08:03:00.357Z,52.73
2024-03-21T08:04:00.335Z,53.13
2024-03-21T08:05:00.404Z,53.03
2024-03-21T08:06:00.310Z,53.31
2024-03-21T08:07:00.324Z,53.13
2024-03-21T08:08:00.356Z,53.41
2024-03-21T08:09:00.296Z,53.41
2024-03-21T08:10:00.384Z,53.51
2024-03-21T08:11:00.320Z,53.13
2024-03-21T08:12:00.319Z,53.51
2024-03-21T08:13:00.286Z,53.22
2024-03-21T08:14:00.371Z,53.31
2024-03-21T08:15:00.381Z,53.22
2024-03-21T08:16:00.300Z,53.03
2024-03-21T08:17:00.415Z,53.31
2024-03-21T08:18:00.449Z,53.22
2024-03-21T08:19:00.257Z,53.22
2024-03-21T08:20:00.370Z,52.93
2024-03-21T08:21:00.281Z,52.64
2024-03-21T08:22:00.290Z,52.93
2024-03-21T08:23:00.286Z,53.03
2024-03-21T08:24:00.293Z,52.73
2024-03-21T08:25:00.301Z,52.73
2024-03-21T08:26:00.303Z,53.03
2024-03-21T08:27:00.245Z,52.83
2024-03-21T08:28:00.228Z,53.03
2024-03-21T08:29:00.301Z,52.93
2024-03-21T08:30:00.411Z,52.93
2024-03-21T08:31:00.274Z,52.73
2024-03-21T08:32:00.226Z,52.93
2024-03-21T08:33:00.240Z,52.93
2024-03-21T08:34:00.213Z,52.95
2024-03-21T08:35:00.305Z,52.64
2024-03-21T08:36:00.199Z,52.83
2024-03-21T08:37:00.212Z,52.93
2024-03-21T08:38:00.214Z,52.86
2024-03-21T08:39:00.190Z,52.47
2024-03-21T08:40:00.229Z,52.67
2024-03-21T08:41:00.198Z,52.57
2024-03-21T08:42:00.229Z,52.86
2024-03-21T08:43:00.235Z,52.95
2024-03-21T08:44:01.241Z,52.67
2024-03-21T08:45:00.265Z,53.05
2024-03-21T08:46:00.185Z,52.67
2024-03-21T08:47:00.186Z,52.37
2024-03-21T08:48:00.200Z,52.47
2024-03-21T08:49:00.262Z,52.47
2024-03-21T08:50:00.210Z,52.47
2024-03-21T08:51:00.161Z,52.47
2024-03-21T08:52:00.169Z,52.19
2024-03-21T08:53:00.147Z,52.57
2024-03-21T08:54:00.146Z,52.67
2024-03-21T08:55:00.210Z,52.28
2024-03-21T08:56:00.222Z,52.57
2024-03-21T08:57:00.133Z,52.28
2024-03-21T08:58:00.140Z,52.76
2024-03-21T08:59:00.115Z,52.76
2024-03-21T09:00:00.155Z,52.19
2024-03-21T09:01:00.154Z,52.47
2024-03-21T09:02:00.182Z,52.76
2024-03-21T09:03:00.144Z,52.09
2024-03-21T09:04:00.336Z,52.19
2024-03-21T09:05:00.232Z,52.47
2024-03-21T09:06:00.107Z,52.19
2024-03-21T09:07:00.087Z,52.57
2024-03-21T09:08:00.148Z,52.47
2024-03-21T09:09:00.218Z,52.19
2024-03-21T09:10:00.227Z,52.67
2024-03-21T09:11:00.104Z,52.76
2024-03-21T09:12:00.225Z,52.19
2024-03-21T09:13:00.902Z,52.67
2024-03-21T09:14:00.154Z,52.67
2024-03-21T09:15:00.074Z,52.09
2024-03-21T09:16:00.117Z,52.19
2024-03-21T09:17:00.127Z,52.19
2024-03-21T09:18:00.120Z,52.19
2024-03-21T09:19:00.065Z,52.21
2024-03-21T09:20:00.243Z,52.19
2024-03-21T09:21:00.039Z,52.19
2024-03-21T09:22:00.087Z,52.19
2024-03-21T09:23:00.082Z,52.19
2024-03-21T09:24:00.060Z,52.19
2024-03-21T09:25:00.041Z,52.19
2024-03-21T09:26:00.038Z,52.19
2024-03-21T09:27:00.051Z,51.99
2024-03-21T09:28:00.025Z,52.21
2024-03-21T09:29:00.059Z,51.92
2024-03-21T09:30:00.039Z,51.63
2024-03-21T09:31:00.011Z,52.01
2024-03-21T09:32:00.038Z,52.50
2024-03-21T09:33:00.001Z,52.40
2024-03-21T09:34:00.150Z,51.73
2024-03-21T09:35:00.024Z,51.53
2024-03-21T09:36:00.002Z,52.40
2024-03-21T09:37:00.063Z,52.40
2024-03-21T09:38:00.026Z,52.40
2024-03-21T09:38:59.995Z,52.11
2024-03-21T09:39:59.973Z,51.73
2024-03-21T09:43:32.525Z,51.92
2024-03-21T09:44:32.491Z,51.82
2024-03-21T09:45:32.491Z,51.82
2024-03-21T09:46:32.536Z,51.82
2024-03-21T09:47:32.655Z,51.73
2024-03-21T09:48:32.527Z,51.34
2024-03-21T09:49:32.547Z,51.44
2024-03-21T09:50:32.478Z,51.34
2024-03-21T09:51:32.487Z,51.82
2024-03-21T09:52:32.481Z,51.63
2024-03-21T09:53:32.612Z,51.63
2024-03-21T09:54:32.458Z,51.63
2024-03-21T09:55:32.454Z,51.63
2024-03-21T09:56:32.458Z,51.73
2024-03-21T09:57:32.471Z,51.53
2024-03-21T09:58:32.536Z,51.75
2024-03-21T09:59:32.445Z,51.56
2024-03-21T10:00:32.510Z,51.56
2024-03-21T10:01:32.560Z,51.56
2024-03-21T10:02:32.440Z,51.56
2024-03-21T10:03:32.498Z,51.65
2024-03-21T10:04:32.425Z,51.37
2024-03-21T10:05:32.481Z,51.65
2024-03-21T10:06:32.514Z,51.46
2024-03-21T10:07:32.434Z,51.37
2024-03-21T10:08:32.422Z,51.17
2024-03-21T10:09:32.483Z,51.27
2024-03-21T10:10:32.415Z,51.37
2024-03-21T10:11:32.415Z,51.37
2024-03-21T10:12:32.439Z,51.37
2024-03-21T10:13:32.414Z,51.39
2024-03-21T10:14:32.405Z,51.20
2024-03-21T10:15:32.451Z,51.39
2024-03-21T10:16:32.395Z,51.39
2024-03-21T10:17:32.445Z,51.49
2024-03-21T10:18:32.398Z,51.20
2024-03-21T10:29:50.706Z,51.03
2024-03-21T10:30:50.671Z,50.74
2024-03-21T10:31:50.664Z,50.84
2024-03-21T10:32:50.636Z,50.74
2024-03-21T10:33:50.627Z,50.74
2024-03-21T10:34:51.360Z,50.84
2024-03-21T10:35:50.620Z,50.84
2024-03-21T10:36:50.621Z,50.84
2024-03-21T10:37:50.625Z,50.65
2024-03-21T10:38:50.619Z,50.45
2024-03-21T10:39:50.617Z,50.45
2024-03-21T10:40:50.623Z,50.65
2024-03-21T10:41:50.599Z,50.55
2024-03-21T10:42:50.617Z,50.74
2024-03-21T10:43:50.587Z,50.65
2024-03-21T10:44:50.591Z,50.65
2024-03-21T10:45:50.630Z,50.57
2024-03-21T10:46:50.589Z,50.26
2024-03-21T10:47:50.594Z,50.76
2024-03-21T10:48:50.589Z,50.76
2024-03-21T10:49:50.584Z,50.84
2024-03-21T10:50:50.621Z,50.67
2024-03-21T10:51:50.595Z,50.84
2024-03-21T10:52:50.589Z,50.84
2024-03-21T10:53:50.610Z,50.57
2024-03-21T10:54:50.579Z,50.67
2024-03-21T10:55:50.583Z,50.67
2024-03-21T10:56:50.586Z,50.38
2024-03-21T10:57:50.582Z,50.67
2024-03-21T10:58:50.566Z,50.28
2024-03-21T10:59:50.570Z,50.09
2024-03-21T11:00:50.577Z,50.18
2024-03-21T11:01:50.615Z,50.38
2024-03-21T11:02:50.606Z,50.50
2024-03-21T11:03:50.571Z,49.99
2024-03-21T11:04:50.571Z,50.60
2024-03-21T11:05:50.555Z,50.79
2024-03-21T11:06:50.589Z,50.31
2024-03-21T11:07:50.558Z,50.40
2024-03-21T11:08:50.544Z,50.21
2024-03-21T11:09:50.582Z,50.12
2024-03-21T11:10:50.552Z,50.02
2024-03-21T11:11:50.574Z,50.50
2024-03-21T11:12:50.619Z,50.50
2024-03-21T11:13:50.664Z,50.50
2024-03-21T11:14:50.547Z,50.50
2024-03-21T11:15:50.548Z,50.31
2024-03-21T11:16:50.600Z,50.50
2024-03-21T11:17:50.615Z,50.50
2024-03-21T11:18:50.542Z,50.40
2024-03-21T11:19:50.536Z,50.72
2024-03-21T11:20:50.538Z,50.72
2024-03-21T11:21:50.531Z,49.95
2024-03-21T11:22:50.542Z,50.24
2024-03-21T11:23:50.616Z,50.52
2024-03-21T11:24:50.579Z,50.31
2024-03-21T11:25:50.533Z,50.21
2024-03-21T11:26:50.532Z,50.31
2024-03-21T11:27:50.536Z,50.14
2024-03-21T11:28:52.042Z,50.21
2024-03-21T11:29:50.525Z,50.40
2024-03-21T11:30:50.559Z,50.21
2024-03-21T11:31:50.547Z,50.14
2024-03-21T11:32:50.530Z,50.14
2024-03-21T11:33:50.567Z,49.82
2024-03-21T11:34:50.526Z,49.92
2024-03-21T11:35:50.532Z,49.95
2024-03-21T11:36:50.532Z,50.12
2024-03-21T11:37:50.535Z,50.02
2024-03-21T11:38:50.525Z,49.73
2024-03-21T11:39:50.543Z,50.02
2024-03-21T11:40:50.540Z,49.82
2024-03-21T11:41:50.552Z,50.31
2024-03-21T11:42:50.534Z,49.63
2024-03-21T11:43:50.527Z,49.92
2024-03-21T11:44:50.556Z,49.75
2024-03-21T11:45:50.508Z,49.85
2024-03-21T11:46:50.532Z,49.85
2024-03-21T11:47:50.502Z,49.95
2024-03-21T11:48:50.525Z,49.95
2024-03-21T11:49:50.591Z,49.65
2024-03-21T11:50:50.532Z,49.46
2024-03-21T11:51:50.494Z,49.56
2024-03-21T11:52:50.530Z,49.65
2024-03-21T11:53:50.497Z,49.65
2024-03-21T11:54:50.512Z,49.65
2024-03-21T11:55:50.493Z,49.77
2024-03-21T11:56:50.502Z,49.68
2024-03-21T11:57:51.402Z,49.49
2024-03-21T11:58:50.500Z,49.68
2024-03-21T11:59:50.507Z,49.39
2024-03-21T12:00:50.488Z,49.77
2024-03-21T12:01:50.487Z,49.39
2024-03-21T12:02:50.500Z,49.29
2024-03-21T12:03:50.485Z,49.68
2024-03-21T12:04:50.516Z,49.68
2024-03-21T12:05:50.519Z,49.58
2024-03-21T12:06:50.494Z,49.51
2024-03-21T12:07:50.507Z,49.49
2024-03-21T12:08:50.492Z,49.41
2024-03-21T12:09:50.489Z,49.32
2024-03-21T12:10:50.527Z,49.12
2024-03-21T12:11:50.491Z,49.41
2024-03-21T12:12:50.515Z,49.41
2024-03-21T12:13:50.486Z,49.51
2024-03-21T12:14:50.499Z,49.22
2024-03-21T12:15:50.495Z,49.12
2024-03-21T12:16:50.519Z,49.12
2024-03-21T12:17:50.530Z,49.02
2024-03-21T12:18:54.187Z,49.12
2024-03-21T12:19:50.486Z,48.95
2024-03-21T12:20:50.497Z,48.95
2024-03-21T12:21:50.477Z,48.49
2024-03-21T12:22:50.515Z,48.49
2024-03-21T12:23:50.485Z,48.39
2024-03-21T12:24:50.502Z,48.49
2024-03-21T12:25:50.490Z,48.42
2024-03-21T12:26:50.510Z,48.78
2024-03-21T12:27:50.538Z,48.71
2024-03-21T12:28:50.504Z,48.61
2024-03-21T12:29:50.483Z,48.52
2024-03-21T12:30:50.493Z,48.52
2024-03-21T12:31:50.482Z,48.42
2024-03-21T12:32:50.498Z,48.52
2024-03-21T12:33:50.491Z,48.61
2024-03-21T12:34:50.510Z,48.80
2024-03-21T12:35:50.497Z,48.59
2024-03-21T12:36:50.510Z,48.49
2024-03-21T12:37:50.489Z,48.78
2024-03-21T12:38:50.476Z,48.69
2024-03-21T12:39:50.497Z,48.66
2024-03-21T12:40:50.512Z,48.78
2024-03-21T12:41:51.474Z,48.78
2024-03-21T12:42:50.491Z,48.57
2024-03-21T12:43:50.481Z,48.66
2024-03-21T12:44:50.520Z,48.49
2024-03-21T12:45:50.492Z,48.49
2024-03-21T12:46:50.480Z,48.39
2024-03-21T12:47:50.542Z,48.20
2024-03-21T12:48:50.512Z,48.10
2024-03-21T12:49:51.298Z,47.91
2024-03-21T12:50:50.486Z,48.20
2024-03-21T12:51:50.501Z,48.30
2024-03-21T12:52:50.482Z,48.39
2024-03-21T12:53:50.496Z,48.20
2024-03-21T12:54:50.504Z,48.10
2024-03-21T12:55:50.656Z,48.20
2024-03-21T12:58:23.022Z,48.10
2024-03-21T12:59:23.106Z,48.20
2024-03-21T13:00:23.041Z,48.20
2024-03-21T13:01:23.041Z,48.27
2024-03-21T13:02:23.046Z,48.18
2024-03-21T13:03:23.115Z,48.18
2024-03-21T13:04:23.099Z,48.37
2024-03-21T13:05:23.018Z,48.47
2024-03-21T13:06:23.017Z,48.47
2024-03-21T13:07:23.362Z,48.47
2024-03-21T13:08:23.029Z,48.47
2024-03-21T13:09:23.019Z,48.47
2024-03-21T13:10:23.059Z,48.27
2024-03-21T13:11:23.080Z,48.27
2024-03-21T13:12:23.081Z,48.27
2024-03-21T13:13:23.037Z,48.35
2024-03-21T13:14:23.054Z,48.44
2024-03-21T13:15:23.015Z,48.35
2024-03-21T13:16:23.056Z,48.44
2024-03-21T13:17:23.090Z,48.54
2024-03-21T13:18:23.004Z,48.44
2024-03-21T13:19:23.053Z,48.44
2024-03-21T13:20:23.101Z,48.42
2024-03-21T13:21:23.073Z,48.54
2024-03-21T13:22:23.027Z,48.52
2024-03-21T13:23:23.038Z,48.61
2024-03-21T13:24:23.007Z,48.61
2024-03-21T13:25:23.033Z,48.71
2024-03-21T13:26:23.001Z,48.52
2024-03-21T13:27:22.991Z,48.61
2024-03-21T13:28:23.018Z,48.71
2024-03-21T13:29:23.059Z,48.61
2024-03-21T13:30:22.998Z,48.71
2024-03-21T13:31:23.025Z,48.79
2024-03-21T13:32:22.999Z,48.88
2024-03-21T13:33:22.990Z,48.69
2024-03-21T13:34:23.700Z,48.88
2024-03-21T13:35:23.001Z,48.69
2024-03-21T13:36:23.008Z,48.88
2024-03-21T13:37:23.003Z,48.69
2024-03-21T13:38:22.987Z,48.69
2024-03-21T13:39:22.993Z,48.88
2024-03-21T13:40:22.981Z,48.69
2024-03-21T13:41:22.994Z,48.69
2024-03-21T13:42:23.018Z,48.76
2024-03-21T13:43:22.999Z,49.05
2024-03-21T13:44:22.974Z,48.86
2024-03-21T13:45:22.976Z,48.76
2024-03-21T13:46:22.974Z,48.86
2024-03-21T13:47:22.974Z,48.95
2024-03-21T13:48:23.037Z,48.76
2024-03-21T13:49:22.984Z,48.66
2024-03-21T13:50:22.967Z,49.15
2024-03-21T13:51:22.951Z,49.05
2024-03-21T13:52:22.995Z,48.95
2024-03-21T13:53:22.959Z,49.05
2024-03-21T13:54:22.977Z,49.22
2024-03-21T13:55:22.958Z,48.95
2024-03-21T13:56:22.971Z,49.02
2024-03-21T13:57:22.955Z,49.02
2024-03-21T13:58:22.950Z,49.22
2024-03-21T13:59:22.941Z,49.22
2024-03-21T14:00:22.962Z,49.32
2024-03-21T14:01:22.995Z,49.22
2024-03-21T14:02:22.972Z,49.41
2024-03-21T14:03:22.949Z,49.12
2024-03-21T14:04:22.930Z,49.41
2024-03-21T14:05:22.951Z,49.32
2024-03-21T14:06:22.924Z,49.10
2024-03-21T14:07:22.948Z,49.39
2024-03-21T14:08:22.936Z,49.29
2024-03-21T14:09:22.924Z,49.10
2024-03-21T14:10:22.974Z,49.19
2024-03-21T14:11:22.951Z,49.39
2024-03-21T14:12:22.953Z,49.29
2024-03-21T14:13:22.949Z,49.58
2024-03-21T14:14:22.901Z,49.49
2024-03-21T14:15:22.931Z,49.29
2024-03-21T14:16:22.916Z,49.19
2024-03-21T14:17:22.935Z,49.49
2024-03-21T14:18:22.904Z,49.39
2024-03-21T14:19:22.924Z,49.39
2024-03-21T14:20:22.896Z,49.68
2024-03-21T14:21:22.895Z,49.39
2024-03-21T14:22:22.899Z,49.29
2024-03-21T14:23:22.907Z,49.58
2024-03-21T14:24:22.905Z,49.29
2024-03-21T14:25:22.893Z,49.19
2024-03-21T14:26:22.895Z,49.29
2024-03-21T14:27:22.896Z,49.12
2024-03-21T14:28:22.891Z,49.02
2024-03-21T14:29:22.903Z,49.02
2024-03-21T14:30:22.882Z,49.02
2024-03-21T14:31:22.882Z,48.83
2024-03-21T14:32:22.871Z,49.02
2024-03-21T14:33:22.870Z,49.12
2024-03-21T14:34:22.888Z,49.02
2024-03-21T14:35:23.301Z,49.22
2024-03-21T14:36:23.044Z,49.12
2024-03-21T14:37:22.942Z,49.22
2024-03-21T14:38:22.859Z,49.22
2024-03-21T14:39:22.895Z,49.12
2024-03-21T14:40:22.901Z,48.93
2024-03-21T14:41:22.874Z,49.12
2024-03-21T14:42:22.884Z,49.12
2024-03-21T14:43:22.881Z,49.15
2024-03-21T14:44:22.866Z,49.24
2024-03-21T14:45:30.838Z,49.02
2024-03-21T14:46:22.901Z,49.05
2024-03-21T14:47:22.921Z,49.15
2024-03-21T14:48:22.881Z,49.05
2024-03-21T14:49:22.856Z,49.15
2024-03-21T14:50:22.855Z,49.15
2024-03-21T14:51:23.152Z,49.02
2024-03-21T14:52:22.858Z,49.12
2024-03-21T14:53:22.972Z,49.12
2024-03-21T14:54:22.854Z,49.12
2024-03-21T14:55:22.829Z,49.15
2024-03-21T14:56:23.157Z,48.95
2024-03-21T14:57:22.845Z,49.05
2024-03-21T14:58:22.848Z,49.05
2024-03-21T14:59:22.848Z,49.15
2024-03-21T15:00:22.863Z,49.05
2024-03-21T15:01:22.850Z,49.15
2024-03-21T15:02:22.832Z,49.24
2024-03-21T15:03:22.810Z,49.24
2024-03-21T15:04:22.845Z,49.05
2024-03-21T15:05:22.818Z,49.05
2024-03-21T15:06:22.812Z,49.05
2024-03-21T15:07:22.834Z,48.76
2024-03-21T15:08:22.798Z,49.05
2024-03-21T15:09:22.830Z,49.05
2024-03-21T15:10:22.813Z,49.15
2024-03-21T15:11:22.846Z,48.86
2024-03-21T15:12:22.802Z,49.32
2024-03-21T15:13:22.796Z,49.02
2024-03-21T15:14:22.789Z,49.15
2024-03-21T15:15:22.806Z,49.12
2024-03-21T15:16:22.807Z,49.24
2024-03-21T15:17:22.836Z,49.12
2024-03-21T15:18:22.797Z,49.32
2024-03-21T15:19:22.795Z,49.41
2024-03-21T15:20:22.780Z,49.41
2024-03-21T15:21:22.791Z,49.60
2024-03-21T15:22:22.801Z,49.51
2024-03-21T15:23:22.828Z,49.41
2024-03-21T15:24:22.832Z,49.49
2024-03-21T15:25:22.784Z,49.12
2024-03-21T15:26:22.801Z,49.19
2024-03-21T15:27:22.893Z,49.39
2024-03-21T15:28:22.804Z,49.39
2024-03-21T15:29:22.791Z,49.19
2024-03-21T15:30:22.780Z,49.39
2024-03-21T15:31:22.789Z,49.39
2024-03-21T15:32:22.818Z,49.29
2024-03-21T15:33:22.779Z,49.29
2024-03-21T15:34:22.754Z,49.29
2024-03-21T15:35:22.776Z,49.68
2024-03-21T15:36:22.764Z,49.68
2024-03-21T15:37:22.837Z,49.29
2024-03-21T15:38:22.744Z,49.39
2024-03-21T15:39:22.759Z,49.29
2024-03-21T15:40:22.784Z,49.39
2024-03-21T15:41:22.774Z,49.29
2024-03-21T15:42:22.771Z,49.39
2024-03-21T15:43:22.731Z,49.68
2024-03-21T15:46:55.284Z,49.58
2024-03-21T15:47:55.295Z,49.37
2024-03-21T15:48:55.275Z,49.17
2024-03-21T15:49:55.326Z,49.58
2024-03-21T15:50:55.269Z,49.65
2024-03-21T15:51:55.262Z,49.55
2024-03-21T15:52:55.306Z,49.55
2024-03-21T15:53:55.265Z,50.04
2024-03-21T15:54:55.243Z,49.55
2024-03-21T15:55:55.288Z,49.46
2024-03-21T15:56:55.262Z,49.46
2024-03-21T15:57:55.284Z,49.55
2024-03-21T15:58:55.258Z,49.75
2024-03-21T15:59:55.229Z,49.65
2024-03-21T16:00:55.279Z,49.65
2024-03-21T16:01:55.274Z,49.65
2024-03-21T16:02:55.293Z,49.85
2024-03-21T16:03:55.319Z,49.55
2024-03-21T16:04:55.250Z,49.55
2024-03-21T16:05:55.299Z,49.82
2024-03-21T16:06:55.242Z,49.63
2024-03-21T16:07:55.236Z,49.73
2024-03-21T16:08:55.271Z,49.82
2024-03-21T16:09:55.231Z,49.53
2024-03-21T16:10:55.219Z,49.63
2024-03-21T16:11:56.932Z,49.63
2024-03-21T16:12:55.220Z,49.73
2024-03-21T16:13:55.225Z,49.63
2024-03-21T16:14:55.205Z,49.92
2024-03-21T16:15:55.232Z,49.63
2024-03-21T16:16:55.273Z,49.73
2024-03-21T16:28:59.900Z,49.80
2024-03-21T16:29:59.961Z,49.80
2024-03-21T16:30:59.834Z,49.80
2024-03-21T16:31:59.819Z,49.60
2024-03-21T16:32:59.858Z,49.70
2024-03-21T16:33:59.849Z,49.70
2024-03-21T16:34:59.820Z,49.90
2024-03-21T16:35:59.817Z,49.90
2024-03-21T16:36:59.792Z,49.99
2024-03-21T16:37:59.803Z,50.09
2024-03-21T16:38:59.795Z,50.09
2024-03-21T16:39:59.773Z,50.18
2024-03-21T16:40:59.799Z,50.16
2024-03-21T16:41:59.780Z,50.26
2024-03-21T16:42:59.774Z,50.09
2024-03-21T16:43:59.793Z,49.96
2024-03-21T16:44:59.794Z,50.54
2024-03-21T16:45:59.780Z,50.54
2024-03-21T16:46:59.771Z,50.06
2024-03-21T16:47:59.757Z,50.16
2024-03-21T16:48:59.747Z,50.16
2024-03-21T16:49:59.752Z,50.26
2024-03-21T16:50:59.750Z,49.87
2024-03-21T16:52:01.426Z,50.35
2024-03-21T16:52:59.739Z,50.26
2024-03-21T16:53:59.735Z,50.16
2024-03-21T16:54:59.767Z,50.16
2024-03-21T16:55:59.732Z,50.16
2024-03-21T16:56:59.741Z,50.26
2024-03-21T16:57:59.741Z,50.64
2024-03-21T16:58:59.709Z,50.35
2024-03-21T16:59:59.717Z,50.35
2024-03-21T17:00:59.750Z,50.45
2024-03-21T17:01:59.704Z,50.06
2024-03-21T17:02:59.731Z,49.96
2024-03-21T17:03:59.699Z,49.96
2024-03-21T17:04:59.725Z,49.96
2024-03-21T17:05:59.714Z,50.13
2024-03-21T17:06:59.719Z,50.32
2024-03-21T17:07:59.675Z,50.13
2024-03-21T17:08:59.683Z,50.13
2024-03-21T17:09:59.684Z,50.52
2024-03-21T17:10:59.673Z,50.42
2024-03-21T17:11:59.685Z,50.62
2024-03-21T17:12:59.664Z,50.23
2024-03-21T17:13:59.714Z,50.32
2024-03-21T17:14:59.666Z,50.23
2024-03-21T17:15:59.675Z,50.32
2024-03-21T17:16:59.693Z,50.42
2024-03-21T17:17:59.645Z,50.42
2024-03-21T17:18:59.655Z,50.42
2024-03-21T17:19:59.645Z,50.62
2024-03-21T17:20:59.635Z,50.52
2024-03-21T17:21:59.650Z,50.62
2024-03-21T17:22:59.621Z,50.52
2024-03-21T17:23:59.620Z,50.71
2024-03-21T17:24:59.651Z,50.42
2024-03-21T17:25:59.631Z,50.71
2024-03-21T17:26:59.675Z,50.32
2024-03-21T17:27:59.605Z,50.90
2024-03-21T17:28:59.606Z,50.62
2024-03-21T17:29:59.596Z,50.23
2024-03-21T17:30:59.588Z,50.71
2024-03-21T17:31:59.608Z,50.90
2024-03-21T17:32:59.590Z,50.52
2024-03-21T17:33:59.586Z,50.71
2024-03-21T17:34:59.598Z,50.81
2024-03-21T17:35:59.606Z,50.81
2024-03-21T17:36:59.579Z,49.94
2024-03-21T17:37:59.581Z,50.81